Tropical Cyclones
[Index]
Main Index Home Page Stock Weather Photos Extreme Storms Discussion Storm News and Storm Chasing Reports Tropical Cyclones / Hurricanes / Typhoons Weather Data and Links Wild Fires / Bushfires Weather Observation Techniques Weather Picture Catalogue Tornado Pictures and Reports Stock Video Footage and DVDs for sale
Season 2004-2005 Tropical Cyclone DAREN Track Map
Season 2004-2005 Summaries: [BoM-AU] [JTWC-AU] [JTWC-SIO] [JTWC-SPAC] [JTWC-SH]
<<- Previous TC | JTWC 2004-2005 Season | Next TC ->>

click for intensity scale information  Lat/long Grid: Show Hide

 Date Labels: Show Hide

Joint Typhoon Warning Centre Cyclone Data

Name: DAREN

15 Jan 2005 06:00 UTC to 21 Jan 2005 18:00 UTC

    date/time    lat    long     hPa   cat  kts
2005-01-15 06    6.4    89.1    1004         20          
2005-01-15 12    6.6    88.3    1004         20          
2005-01-15 18    6.8    87.6    1004         20          
2005-01-16 00    6.9    87.0    1004         20          
2005-01-16 06    7.0    86.6    1004         20          
2005-01-16 12    7.4    86.0    1004         20          
2005-01-16 18    8.0    85.4    1004         20          
2005-01-17 00    8.4    85.0    1002         25          
2005-01-17 06    8.8    84.7    1000         30          
2005-01-17 12    9.4    84.3    1000         30          
2005-01-17 18   10.0    83.9    1000         30          
2005-01-18 00   10.6    83.4     997         35          
2005-01-18 06   11.2    82.6     997         35          
2005-01-18 12   11.8    81.5     997         35          
2005-01-18 18   12.4    80.3     991    1    45          
2005-01-19 00   12.9    79.0     991    1    45          
2005-01-19 06   13.5    77.4     994    1    40          
2005-01-19 12   14.3    75.7     991    1    45          
2005-01-19 18   15.0    74.2     991    1    45          
2005-01-20 00   15.8    72.8     994    1    40          
2005-01-20 06   15.9    71.6     997         35          
2005-01-20 12   16.1    70.4     997         35          
2005-01-20 18   16.3    69.2    1002         25          
2005-01-21 00   16.5    68.1    1002         25          
2005-01-21 06   16.7    66.9    1002         25          
2005-01-21 12   16.8    65.1    1002         25          
2005-01-21 18   16.9    62.9    1002         25          
Winds are 1-min average.

Tropical cyclone tracks developed by Michael Bath using data from the Joint Typhoon Warning Centre Best Tracks and Google Maps.


[Australian Severe Weather index] [Copyright Notice] [Email Contacts] [Search This Site] [Privacy Policy]
Document: tropical_cyclone_daren.htm Updated: 28 June 2017